sensor_id;sensor_type;location;lat;lon;timestamp;pressure;altitude;pressure_sealevel;temperature;humidity
23229;BME280;11783;50.350;6.576;2023-01-05T00:01:00;96386.69;;;8.62;100.00
23229;BME280;11783;50.350;6.576;2023-01-05T00:03:27;96384.25;;;8.60;100.00
23229;BME280;11783;50.350;6.576;2023-01-05T00:06:02;96394.41;;;8.63;100.00
23229;BME280;11783;50.350;6.576;2023-01-05T00:08:28;96394.75;;;8.67;100.00
23229;BME280;11783;50.350;6.576;2023-01-05T00:10:53;96395.91;;;8.71;100.00
23229;BME280;11783;50.350;6.576;2023-01-05T00:13:37;96390.63;;;8.71;100.00
23229;BME280;11783;50.350;6.576;2023-01-05T00:16:21;96387.72;;;8.72;100.00
23229;BME280;11783;50.350;6.576;2023-01-05T00:19:11;96392.09;;;8.67;100.00
23229;BME280;11783;50.350;6.576;2023-01-05T00:21:56;96400.84;;;8.67;100.00
23229;BME280;11783;50.350;6.576;2023-01-05T00:24:43;96402.69;;;8.67;100.00
23229;BME280;11783;50.350;6.576;2023-01-05T00:27:08;96420.78;;;8.58;100.00
23229;BME280;11783;50.350;6.576;2023-01-05T00:29:33;96401.44;;;8.58;100.00
23229;BME280;11783;50.350;6.576;2023-01-05T00:31:59;96402.81;;;8.60;100.00
23229;BME280;11783;50.350;6.576;2023-01-05T00:34:26;96411.50;;;8.49;100.00
23229;BME280;11783;50.350;6.576;2023-01-05T00:36:52;96411.16;;;8.45;100.00
23229;BME280;11783;50.350;6.576;2023-01-05T00:39:17;96413.22;;;8.43;100.00
23229;BME280;11783;50.350;6.576;2023-01-05T00:41:42;96408.97;;;8.42;100.00
23229;BME280;11783;50.350;6.576;2023-01-05T00:44:09;96422.88;;;8.38;100.00
23229;BME280;11783;50.350;6.576;2023-01-05T00:46:37;96425.53;;;8.38;100.00
23229;BME280;11783;50.350;6.576;2023-01-05T00:49:05;96409.25;;;8.34;100.00
23229;BME280;11783;50.350;6.576;2023-01-05T00:51:30;96412.50;;;8.36;100.00
23229;BME280;11783;50.350;6.576;2023-01-05T00:53:55;96413.44;;;8.42;100.00
23229;BME280;11783;50.350;6.576;2023-01-05T00:56:21;96409.91;;;8.30;100.00
23229;BME280;11783;50.350;6.576;2023-01-05T00:58:46;96419.69;;;8.29;100.00
23229;BME280;11783;50.350;6.576;2023-01-05T01:01:12;96421.53;;;8.29;100.00
23229;BME280;11783;50.350;6.576;2023-01-05T01:03:37;96423.97;;;8.30;100.00
23229;BME280;11783;50.350;6.576;2023-01-05T01:06:03;96421.69;;;8.34;100.00
23229;BME280;11783;50.350;6.576;2023-01-05T01:08:28;96427.88;;;8.28;100.00
23229;BME280;11783;50.350;6.576;2023-01-05T01:10:54;96432.94;;;8.29;100.00
23229;BME280;11783;50.350;6.576;2023-01-05T01:13:19;96425.88;;;8.23;100.00
23229;BME280;11783;50.350;6.576;2023-01-05T01:15:44;96443.63;;;8.23;100.00
23229;BME280;11783;50.350;6.576;2023-01-05T01:18:09;96430.66;;;8.14;100.00
23229;BME280;11783;50.350;6.576;2023-01-05T01:20:38;96439.56;;;8.20;100.00
23229;BME280;11783;50.350;6.576;2023-01-05T01:23:09;96427.78;;;8.16;100.00
23229;BME280;11783;50.350;6.576;2023-01-05T01:25:36;96417.38;;;8.21;100.00
23229;BME280;11783;50.350;6.576;2023-01-05T01:28:02;96421.75;;;8.27;100.00
23229;BME280;11783;50.350;6.576;2023-01-05T01:30:27;96427.50;;;8.24;100.00
23229;BME280;11783;50.350;6.576;2023-01-05T01:32:52;96420.44;;;8.18;100.00
23229;BME280;11783;50.350;6.576;2023-01-05T01:35:21;96431.41;;;8.22;100.00
23229;BME280;11783;50.350;6.576;2023-01-05T01:37:46;96437.97;;;8.19;100.00
23229;BME280;11783;50.350;6.576;2023-01-05T01:40:11;96430.38;;;8.23;100.00
23229;BME280;11783;50.350;6.576;2023-01-05T01:42:37;96442.50;;;8.12;100.00
23229;BME280;11783;50.350;6.576;2023-01-05T01:45:24;96431.69;;;8.13;100.00
23229;BME280;11783;50.350;6.576;2023-01-05T01:47:59;96434.06;;;8.22;100.00
23229;BME280;11783;50.350;6.576;2023-01-05T01:50:30;96437.22;;;8.12;100.00
23229;BME280;11783;50.350;6.576;2023-01-05T01:53:05;96425.72;;;8.18;100.00
23229;BME280;11783;50.350;6.576;2023-01-05T01:55:33;96427.22;;;8.14;100.00
23229;BME280;11783;50.350;6.576;2023-01-05T01:58:00;96431.94;;;8.12;100.00
23229;BME280;11783;50.350;6.576;2023-01-05T02:00:28;96434.88;;;8.04;100.00
23229;BME280;11783;50.350;6.576;2023-01-05T02:02:54;96434.44;;;8.07;100.00
23229;BME280;11783;50.350;6.576;2023-01-05T02:05:25;96433.84;;;8.05;100.00
23229;BME280;11783;50.350;6.576;2023-01-05T02:07:55;96424.06;;;8.05;100.00
23229;BME280;11783;50.350;6.576;2023-01-05T02:10:37;96431.78;;;8.07;100.00
23229;BME280;11783;50.350;6.576;2023-01-05T02:13:37;96429.38;;;8.05;100.00
23229;BME280;11783;50.350;6.576;2023-01-05T02:16:17;96439.59;;;8.02;100.00
23229;BME280;11783;50.350;6.576;2023-01-05T02:18:53;96431.13;;;7.93;100.00
23229;BME280;11783;50.350;6.576;2023-01-05T02:21:41;96445.38;;;7.92;100.00
23229;BME280;11783;50.350;6.576;2023-01-05T02:24:47;96438.25;;;7.93;100.00
23229;BME280;11783;50.350;6.576;2023-01-05T02:32:56;96439.28;;;7.92;100.00
23229;BME280;11783;50.350;6.576;2023-01-05T02:35:40;96446.78;;;7.95;100.00
23229;BME280;11783;50.350;6.576;2023-01-05T02:38:37;96456.41;;;7.89;100.00
23229;BME280;11783;50.350;6.576;2023-01-05T02:41:22;96450.47;;;7.94;100.00
23229;BME280;11783;50.350;6.576;2023-01-05T02:43:49;96454.50;;;7.96;100.00
23229;BME280;11783;50.350;6.576;2023-01-05T02:46:17;96447.44;;;7.90;100.00
23229;BME280;11783;50.350;6.576;2023-01-05T02:48:44;96434.00;;;7.92;100.00
23229;BME280;11783;50.350;6.576;2023-01-05T02:51:31;96441.78;;;7.86;100.00
23229;BME280;11783;50.350;6.576;2023-01-05T02:54:07;96449.50;;;7.88;100.00
23229;BME280;11783;50.350;6.576;2023-01-05T02:56:41;96448.78;;;7.81;100.00
23229;BME280;11783;50.350;6.576;2023-01-05T03:01:59;96432.50;;;7.77;100.00
23229;BME280;11783;50.350;6.576;2023-01-05T03:04:33;96436.13;;;7.83;100.00
23229;BME280;11783;50.350;6.576;2023-01-05T03:07:06;96435.34;;;7.82;100.00
23229;BME280;11783;50.350;6.576;2023-01-05T03:09:36;96451.56;;;7.86;100.00
23229;BME280;11783;50.350;6.576;2023-01-05T03:15:02;96453.19;;;7.87;100.00
23229;BME280;11783;50.350;6.576;2023-01-05T03:17:45;96470.31;;;7.84;100.00
23229;BME280;11783;50.350;6.576;2023-01-05T03:20:17;96456.06;;;7.85;100.00
23229;BME280;11783;50.350;6.576;2023-01-05T03:22:45;96460.91;;;7.88;100.00
23229;BME280;11783;50.350;6.576;2023-01-05T03:25:33;96464.81;;;7.86;100.00
23229;BME280;11783;50.350;6.576;2023-01-05T03:28:23;96456.19;;;7.90;100.00
23229;BME280;11783;50.350;6.576;2023-01-05T03:31:16;96466.47;;;7.80;100.00
23229;BME280;11783;50.350;6.576;2023-01-05T03:34:11;96467.66;;;7.84;100.00
23229;BME280;11783;50.350;6.576;2023-01-05T03:37:02;96467.22;;;7.87;100.00
23229;BME280;11783;50.350;6.576;2023-01-05T03:39:29;96466.88;;;7.84;100.00
23229;BME280;11783;50.350;6.576;2023-01-05T03:41:57;96462.59;;;7.83;100.00
23229;BME280;11783;50.350;6.576;2023-01-05T03:44:23;96471.50;;;7.88;100.00
23229;BME280;11783;50.350;6.576;2023-01-05T03:46:50;96460.47;;;7.92;100.00
23229;BME280;11783;50.350;6.576;2023-01-05T03:49:15;96457.09;;;7.84;100.00
23229;BME280;11783;50.350;6.576;2023-01-05T03:51:42;96454.25;;;7.79;100.00
23229;BME280;11783;50.350;6.576;2023-01-05T03:54:10;96457.31;;;7.83;100.00
23229;BME280;11783;50.350;6.576;2023-01-05T03:56:35;96470.94;;;7.80;100.00
23229;BME280;11783;50.350;6.576;2023-01-05T03:59:03;96465.47;;;7.81;100.00
23229;BME280;11783;50.350;6.576;2023-01-05T04:01:28;96472.28;;;7.89;100.00
23229;BME280;11783;50.350;6.576;2023-01-05T04:03:53;96487.38;;;7.88;100.00
23229;BME280;11783;50.350;6.576;2023-01-05T04:06:19;96482.75;;;7.84;100.00
23229;BME280;11783;50.350;6.576;2023-01-05T04:08:44;96491.50;;;7.84;100.00
23229;BME280;11783;50.350;6.576;2023-01-05T04:11:18;96484.34;;;7.85;100.00
23229;BME280;11783;50.350;6.576;2023-01-05T04:13:44;96507.41;;;7.78;100.00
23229;BME280;11783;50.350;6.576;2023-01-05T04:16:09;96498.88;;;7.76;100.00
23229;BME280;11783;50.350;6.576;2023-01-05T04:18:35;96495.56;;;7.80;100.00
23229;BME280;11783;50.350;6.576;2023-01-05T04:21:01;96489.09;;;7.76;100.00
23229;BME280;11783;50.350;6.576;2023-01-05T04:23:26;96495.22;;;7.77;100.00
23229;BME280;11783;50.350;6.576;2023-01-05T04:25:52;96490.00;;;7.70;100.00
23229;BME280;11783;50.350;6.576;2023-01-05T04:28:17;96484.69;;;7.70;100.00
23229;BME280;11783;50.350;6.576;2023-01-05T04:30:48;96488.16;;;7.71;100.00
23229;BME280;11783;50.350;6.576;2023-01-05T04:33:14;96491.81;;;7.70;100.00
23229;BME280;11783;50.350;6.576;2023-01-05T04:35:40;96486.16;;;7.66;100.00
23229;BME280;11783;50.350;6.576;2023-01-05T04:38:08;96495.34;;;7.64;100.00
23229;BME280;11783;50.350;6.576;2023-01-05T04:40:33;96498.94;;;7.69;100.00
23229;BME280;11783;50.350;6.576;2023-01-05T04:42:58;96484.69;;;7.70;100.00
23229;BME280;11783;50.350;6.576;2023-01-05T04:45:26;96494.31;;;7.65;100.00
23229;BME280;11783;50.350;6.576;2023-01-05T04:47:52;96479.03;;;7.67;100.00
23229;BME280;11783;50.350;6.576;2023-01-05T04:50:17;96496.91;;;7.71;100.00
23229;BME280;11783;50.350;6.576;2023-01-05T04:52:45;96504.50;;;7.61;100.00
23229;BME280;11783;50.350;6.576;2023-01-05T04:55:10;96508.34;;;7.65;100.00
23229;BME280;11783;50.350;6.576;2023-01-05T04:57:38;96481.91;;;7.65;100.00
23229;BME280;11783;50.350;6.576;2023-01-05T05:00:04;96489.84;;;7.65;100.00
23229;BME280;11783;50.350;6.576;2023-01-05T05:02:31;96482.94;;;7.64;100.00
23229;BME280;11783;50.350;6.576;2023-01-05T05:04:56;96482.94;;;7.64;100.00
23229;BME280;11783;50.350;6.576;2023-01-05T05:07:21;96488.81;;;7.66;100.00
23229;BME280;11783;50.350;6.576;2023-01-05T05:09:47;96486.00;;;7.61;100.00
23229;BME280;11783;50.350;6.576;2023-01-05T05:12:12;96479.09;;;7.60;100.00
23229;BME280;11783;50.350;6.576;2023-01-05T05:14:38;96488.81;;;7.66;100.00
23229;BME280;11783;50.350;6.576;2023-01-05T05:17:04;96486.22;;;7.59;100.00
23229;BME280;11783;50.350;6.576;2023-01-05T05:19:30;96491.28;;;7.61;100.00
23229;BME280;11783;50.350;6.576;2023-01-05T05:21:56;96493.13;;;7.60;100.00
23229;BME280;11783;50.350;6.576;2023-01-05T05:24:24;96499.44;;;7.59;100.00
23229;BME280;11783;50.350;6.576;2023-01-05T05:26:49;96498.81;;;7.64;100.00
23229;BME280;11783;50.350;6.576;2023-01-05T05:29:15;96493.56;;;7.57;100.00
23229;BME280;11783;50.350;6.576;2023-01-05T05:31:40;96494.47;;;7.70;100.00
23229;BME280;11783;50.350;6.576;2023-01-05T05:34:06;96502.84;;;7.67;100.00
23229;BME280;11783;50.350;6.576;2023-01-05T05:36:35;96499.84;;;7.63;100.00
23229;BME280;11783;50.350;6.576;2023-01-05T05:39:02;96502.03;;;7.66;100.00
23229;BME280;11783;50.350;6.576;2023-01-05T05:41:30;96499.03;;;7.63;100.00
23229;BME280;11783;50.350;6.576;2023-01-05T05:43:55;96500.69;;;7.57;100.00
23229;BME280;11783;50.350;6.576;2023-01-05T05:46:25;96503.69;;;7.60;100.00
23229;BME280;11783;50.350;6.576;2023-01-05T05:48:51;96499.84;;;7.63;100.00
23229;BME280;11783;50.350;6.576;2023-01-05T05:51:20;96511.91;;;7.52;100.00
23229;BME280;11783;50.350;6.576;2023-01-05T05:53:45;96514.78;;;7.51;100.00
23229;BME280;11783;50.350;6.576;2023-01-05T05:56:10;96526.22;;;7.45;100.00
23229;BME280;11783;50.350;6.576;2023-01-05T05:58:36;96515.22;;;7.48;100.00
23229;BME280;11783;50.350;6.576;2023-01-05T06:01:01;96515.25;;;7.41;100.00
23229;BME280;11783;50.350;6.576;2023-01-05T06:03:26;96512.03;;;7.39;100.00
23229;BME280;11783;50.350;6.576;2023-01-05T06:05:52;96509.16;;;7.41;100.00
23229;BME280;11783;50.350;6.576;2023-01-05T06:08:17;96508.78;;;7.37;100.00
23229;BME280;11783;50.350;6.576;2023-01-05T06:10:43;96507.38;;;7.35;100.00
23229;BME280;11783;50.350;6.576;2023-01-05T06:13:08;96510.41;;;7.38;100.00
23229;BME280;11783;50.350;6.576;2023-01-05T06:15:33;96520.38;;;7.36;100.00
23229;BME280;11783;50.350;6.576;2023-01-05T06:17:59;96513.47;;;7.35;100.00
23229;BME280;11783;50.350;6.576;2023-01-05T06:20:24;96520.75;;;7.40;100.00
23229;BME280;11783;50.350;6.576;2023-01-05T06:22:49;96529.91;;;7.44;100.00
23229;BME280;11783;50.350;6.576;2023-01-05T06:25:15;96532.38;;;7.39;100.00
23229;BME280;11783;50.350;6.576;2023-01-05T06:27:40;96527.72;;;7.34;100.00
23229;BME280;11783;50.350;6.576;2023-01-05T06:30:06;96529.41;;;7.28;100.00
23229;BME280;11783;50.350;6.576;2023-01-05T06:32:32;96531.03;;;7.29;100.00
23229;BME280;11783;50.350;6.576;2023-01-05T06:34:57;96534.69;;;7.28;100.00
23229;BME280;11783;50.350;6.576;2023-01-05T06:37:22;96538.75;;;7.31;100.00
23229;BME280;11783;50.350;6.576;2023-01-05T06:39:47;96542.19;;;7.32;100.00
23229;BME280;11783;50.350;6.576;2023-01-05T06:42:15;96537.50;;;7.34;100.00
23229;BME280;11783;50.350;6.576;2023-01-05T06:44:43;96545.00;;;7.37;100.00
23229;BME280;11783;50.350;6.576;2023-01-05T06:47:08;96543.00;;;7.32;100.00
23229;BME280;11783;50.350;6.576;2023-01-05T06:49:34;96542.19;;;7.32;100.00
23229;BME280;11783;50.350;6.576;2023-01-05T06:51:59;96541.31;;;7.38;100.00
23229;BME280;11783;50.350;6.576;2023-01-05T06:54:24;96552.94;;;7.37;100.00
23229;BME280;11783;50.350;6.576;2023-01-05T06:56:50;96551.31;;;7.36;100.00
23229;BME280;11783;50.350;6.576;2023-01-05T06:59:15;96554.31;;;7.39;100.00
23229;BME280;11783;50.350;6.576;2023-01-05T07:01:40;96556.00;;;7.34;100.00
23229;BME280;11783;50.350;6.576;2023-01-05T07:04:06;96559.84;;;7.38;100.00
23229;BME280;11783;50.350;6.576;2023-01-05T07:06:33;96564.09;;;7.39;100.00
23229;BME280;11783;50.350;6.576;2023-01-05T07:08:58;96569.59;;;7.37;100.00
23229;BME280;11783;50.350;6.576;2023-01-05T07:11:24;96563.06;;;7.40;100.00
23229;BME280;11783;50.350;6.576;2023-01-05T07:13:49;96562.25;;;7.39;100.00
23229;BME280;11783;50.350;6.576;2023-01-05T07:16:15;96568.13;;;7.41;100.00
23229;BME280;11783;50.350;6.576;2023-01-05T07:18:41;96570.19;;;7.39;100.00
23229;BME280;11783;50.350;6.576;2023-01-05T07:21:06;96567.34;;;7.41;100.00
23229;BME280;11783;50.350;6.576;2023-01-05T07:23:31;96570.38;;;7.44;100.00
23229;BME280;11783;50.350;6.576;2023-01-05T07:26:00;96571.78;;;7.47;100.00
23229;BME280;11783;50.350;6.576;2023-01-05T07:28:25;96576.63;;;7.50;100.00
23229;BME280;11783;50.350;6.576;2023-01-05T07:30:51;96580.16;;;7.44;100.00
23229;BME280;11783;50.350;6.576;2023-01-05T07:33:17;96585.81;;;7.47;100.00
23229;BME280;11783;50.350;6.576;2023-01-05T07:35:45;96587.47;;;7.42;100.00
23229;BME280;11783;50.350;6.576;2023-01-05T07:38:10;96589.50;;;7.40;100.00
23229;BME280;11783;50.350;6.576;2023-01-05T07:40:36;96596.63;;;7.39;100.00
23229;BME280;11783;50.350;6.576;2023-01-05T07:43:01;96599.47;;;7.44;100.00
23229;BME280;11783;50.350;6.576;2023-01-05T07:45:26;96605.16;;;7.41;100.00
23229;BME280;11783;50.350;6.576;2023-01-05T07:47:57;96599.66;;;7.43;100.00
23229;BME280;11783;50.350;6.576;2023-01-05T07:50:31;96600.88;;;7.47;100.00
23229;BME280;11783;50.350;6.576;2023-01-05T07:52:57;96603.91;;;7.50;100.00
23229;BME280;11783;50.350;6.576;2023-01-05T07:55:23;96610.59;;;7.53;100.00
23229;BME280;11783;50.350;6.576;2023-01-05T07:57:49;96610.72;;;7.65;100.00
23229;BME280;11783;50.350;6.576;2023-01-05T08:00:14;96623.50;;;7.68;100.00
23229;BME280;11783;50.350;6.576;2023-01-05T08:02:40;96620.50;;;7.64;100.00
23229;BME280;11783;50.350;6.576;2023-01-05T08:05:06;96625.44;;;7.54;100.00
23229;BME280;11783;50.350;6.576;2023-01-05T08:07:33;96621.59;;;7.50;100.00
23229;BME280;11783;50.350;6.576;2023-01-05T08:09:59;96628.13;;;7.47;100.00
23229;BME280;11783;50.350;6.576;2023-01-05T08:12:42;96626.50;;;7.46;100.00
23229;BME280;11783;50.350;6.576;2023-01-05T08:15:37;96626.72;;;7.45;100.00
23229;BME280;11783;50.350;6.576;2023-01-05T08:18:02;96633.78;;;7.51;100.00
23229;BME280;11783;50.350;6.576;2023-01-05T08:20:28;96633.97;;;7.56;100.00
23229;BME280;11783;50.350;6.576;2023-01-05T08:22:56;96629.91;;;7.53;100.00
23229;BME280;11783;50.350;6.576;2023-01-05T08:25:21;96636.81;;;7.54;100.00
23229;BME280;11783;50.350;6.576;2023-01-05T08:27:47;96640.66;;;7.58;100.00
23229;BME280;11783;50.350;6.576;2023-01-05T08:30:13;96642.91;;;7.55;100.00
23229;BME280;11783;50.350;6.576;2023-01-05T08:32:39;96642.47;;;7.58;100.00
23229;BME280;11783;50.350;6.576;2023-01-05T08:35:05;96648.78;;;7.64;100.00
23229;BME280;11783;50.350;6.576;2023-01-05T08:37:31;96653.44;;;7.62;100.00
23229;BME280;11783;50.350;6.576;2023-01-05T08:39:56;96650.56;;;7.70;100.00
23229;BME280;11783;50.350;6.576;2023-01-05T08:42:24;96660.50;;;7.74;100.00
23229;BME280;11783;50.350;6.576;2023-01-05T08:44:50;96663.78;;;7.70;100.00
23229;BME280;11783;50.350;6.576;2023-01-05T08:47:15;96658.28;;;7.71;100.00
23229;BME280;11783;50.350;6.576;2023-01-05T08:49:40;96655.78;;;7.76;100.00
23229;BME280;11783;50.350;6.576;2023-01-05T08:52:10;96662.09;;;7.75;100.00
23229;BME280;11783;50.350;6.576;2023-01-05T08:54:35;96669.06;;;7.70;100.00
23229;BME280;11783;50.350;6.576;2023-01-05T08:57:01;96671.06;;;7.74;100.00
23229;BME280;11783;50.350;6.576;2023-01-05T08:59:26;96670.69;;;7.71;100.00
23229;BME280;11783;50.350;6.576;2023-01-05T09:01:51;96666.22;;;7.71;100.00
23229;BME280;11783;50.350;6.576;2023-01-05T09:04:17;96659.91;;;7.72;100.00
23229;BME280;11783;50.350;6.576;2023-01-05T09:06:42;96670.03;;;7.75;100.00
23229;BME280;11783;50.350;6.576;2023-01-05T09:09:10;96666.22;;;7.71;100.00
23229;BME280;11783;50.350;6.576;2023-01-05T09:11:36;96673.34;;;7.71;100.00
23229;BME280;11783;50.350;6.576;2023-01-05T09:14:01;96674.75;;;7.73;100.00
23229;BME280;11783;50.350;6.576;2023-01-05T09:16:31;96680.25;;;7.72;100.00
23229;BME280;11783;50.350;6.576;2023-01-05T09:18:57;96682.47;;;7.75;100.00
23229;BME280;11783;50.350;6.576;2023-01-05T09:21:25;96681.13;;;7.66;100.00
23229;BME280;11783;50.350;6.576;2023-01-05T09:23:51;96684.72;;;7.71;100.00
23229;BME280;11783;50.350;6.576;2023-01-05T09:26:16;96678.78;;;7.76;100.00
23229;BME280;11783;50.350;6.576;2023-01-05T09:28:43;96685.28;;;7.80;100.00
23229;BME280;11783;50.350;6.576;2023-01-05T09:31:20;96687.31;;;7.84;100.00
23229;BME280;11783;50.350;6.576;2023-01-05T09:33:46;96683.25;;;7.82;100.00
23229;BME280;11783;50.350;6.576;2023-01-05T09:36:13;96684.66;;;7.84;100.00
23229;BME280;11783;50.350;6.576;2023-01-05T09:38:42;96690.75;;;7.85;100.00
23229;BME280;11783;50.350;6.576;2023-01-05T09:43:40;96681.50;;;7.94;100.00
23229;BME280;11783;50.350;6.576;2023-01-05T09:46:12;96682.31;;;7.95;100.00
23229;BME280;11783;50.350;6.576;2023-01-05T09:48:43;96684.97;;;7.95;100.00
23229;BME280;11783;50.350;6.576;2023-01-05T09:51:14;96701.66;;;7.95;100.00
23229;BME280;11783;50.350;6.576;2023-01-05T09:53:39;96710.69;;;7.87;100.00
23229;BME280;11783;50.350;6.576;2023-01-05T09:56:09;96716.94;;;7.93;100.00
23229;BME280;11783;50.350;6.576;2023-01-05T09:58:40;96712.09;;;7.90;100.00
23229;BME280;11783;50.350;6.576;2023-01-05T10:01:12;96715.09;;;8.00;100.00
23229;BME280;11783;50.350;6.576;2023-01-05T10:04:04;96715.03;;;8.07;100.00
23229;BME280;11783;50.350;6.576;2023-01-05T10:06:32;96722.31;;;8.11;100.00
23229;BME280;11783;50.350;6.576;2023-01-05T10:08:59;96717.84;;;8.12;100.00
23229;BME280;11783;50.350;6.576;2023-01-05T10:11:58;96723.41;;;8.04;100.00
23229;BME280;11783;50.350;6.576;2023-01-05T10:14:50;96724.22;;;8.04;100.00
23229;BME280;11783;50.350;6.576;2023-01-05T10:17:20;96726.00;;;8.10;100.00
23229;BME280;11783;50.350;6.576;2023-01-05T10:19:46;96735.50;;;8.18;100.00
23229;BME280;11783;50.350;6.576;2023-01-05T10:29:57;96734.75;;;8.11;100.00
23229;BME280;11783;50.350;6.576;2023-01-05T10:32:46;96734.97;;;8.09;100.00
23229;BME280;11783;50.350;6.576;2023-01-05T10:40:54;96732.75;;;8.06;100.00
23229;BME280;11783;50.350;6.576;2023-01-05T10:46:10;96735.34;;;8.13;100.00
23229;BME280;11783;50.350;6.576;2023-01-05T10:48:39;96729.59;;;8.16;100.00
23229;BME280;11783;50.350;6.576;2023-01-05T10:51:11;96716.34;;;8.23;100.00
23229;BME280;11783;50.350;6.576;2023-01-05T10:53:40;96723.03;;;8.25;100.00
23229;BME280;11783;50.350;6.576;2023-01-05T10:56:22;96723.78;;;8.32;100.00
23229;BME280;11783;50.350;6.576;2023-01-05T10:58:47;96726.44;;;8.32;100.00
23229;BME280;11783;50.350;6.576;2023-01-05T11:01:29;96731.72;;;8.32;100.00
23229;BME280;11783;50.350;6.576;2023-01-05T11:04:21;96732.53;;;8.33;100.00
23229;BME280;11783;50.350;6.576;2023-01-05T11:06:48;96728.88;;;8.34;100.00
23229;BME280;11783;50.350;6.576;2023-01-05T11:09:19;96730.50;;;8.35;100.00
23229;BME280;11783;50.350;6.576;2023-01-05T11:12:19;96742.31;;;8.39;100.00
23229;BME280;11783;50.350;6.576;2023-01-05T11:14:54;96733.78;;;8.37;100.00
23229;BME280;11783;50.350;6.576;2023-01-05T11:17:23;96751.28;;;8.31;100.00
23229;BME280;11783;50.350;6.576;2023-01-05T11:19:51;96744.16;;;8.32;100.00
23229;BME280;11783;50.350;6.576;2023-01-05T11:22:35;96740.69;;;8.31;100.00
23229;BME280;11783;50.350;6.576;2023-01-05T11:25:34;96743.94;;;8.33;100.00
23229;BME280;11783;50.350;6.576;2023-01-05T11:28:13;96743.34;;;8.31;100.00
23229;BME280;11783;50.350;6.576;2023-01-05T11:31:02;96738.03;;;8.38;100.00
23229;BME280;11783;50.350;6.576;2023-01-05T11:33:30;96749.81;;;8.42;100.00
23229;BME280;11783;50.350;6.576;2023-01-05T11:35:58;96745.38;;;8.36;100.00
23229;BME280;11783;50.350;6.576;2023-01-05T11:38:30;96748.81;;;8.36;100.00
23229;BME280;11783;50.350;6.576;2023-01-05T11:40:56;96747.63;;;8.39;100.00
23229;BME280;11783;50.350;6.576;2023-01-05T11:43:25;96745.28;;;8.49;100.00
23229;BME280;11783;50.350;6.576;2023-01-05T11:45:58;96739.66;;;8.39;100.00
23229;BME280;11783;50.350;6.576;2023-01-05T11:48:26;96740.03;;;8.42;100.00
23229;BME280;11783;50.350;6.576;2023-01-05T11:50:54;96736.38;;;8.43;100.00
23229;BME280;11783;50.350;6.576;2023-01-05T11:56:15;96744.78;;;8.34;100.00
23229;BME280;11783;50.350;6.576;2023-01-05T11:58:43;96750.88;;;8.34;100.00
23229;BME280;11783;50.350;6.576;2023-01-05T12:01:31;96752.53;;;8.29;100.00
23229;BME280;11783;50.350;6.576;2023-01-05T12:04:06;96750.09;;;8.27;100.00
23229;BME280;11783;50.350;6.576;2023-01-05T12:09:25;96763.50;;;8.32;100.00
23229;BME280;11783;50.350;6.576;2023-01-05T12:14:56;96742.94;;;8.34;100.00
23229;BME280;11783;50.350;6.576;2023-01-05T12:17:43;96745.19;;;8.37;100.00
23229;BME280;11783;50.350;6.576;2023-01-05T12:20:35;96740.41;;;8.46;100.00
23229;BME280;11783;50.350;6.576;2023-01-05T12:23:38;96737.53;;;8.47;100.00
23229;BME280;11783;50.350;6.576;2023-01-05T12:26:19;96733.28;;;8.46;100.00
23229;BME280;11783;50.350;6.576;2023-01-05T12:37:00;96741.34;;;8.58;100.00
23229;BME280;11783;50.350;6.576;2023-01-05T12:45:33;96736.66;;;8.54;100.00
23229;BME280;11783;50.350;6.576;2023-01-05T12:51:23;96738.75;;;8.70;100.00
23229;BME280;11783;50.350;6.576;2023-01-05T12:53:57;96744.06;;;8.70;100.00
23229;BME280;11783;50.350;6.576;2023-01-05T12:56:29;96758.72;;;8.72;100.00
23229;BME280;11783;50.350;6.576;2023-01-05T12:59:19;96746.56;;;8.65;100.00
23229;BME280;11783;50.350;6.576;2023-01-05T13:07:19;96750.97;;;8.71;100.00
23229;BME280;11783;50.350;6.576;2023-01-05T13:09:55;96751.06;;;8.64;100.00
23229;BME280;11783;50.350;6.576;2023-01-05T13:12:21;96747.44;;;8.59;100.00
23229;BME280;11783;50.350;6.576;2023-01-05T13:15:53;96758.63;;;8.61;100.00
23229;BME280;11783;50.350;6.576;2023-01-05T13:17:49;96748.84;;;8.61;100.00
23229;BME280;11783;50.350;6.576;2023-01-05T13:20:35;96746.63;;;8.58;100.00
23229;BME280;11783;50.350;6.576;2023-01-05T13:23:11;96739.72;;;8.57;100.00
23229;BME280;11783;50.350;6.576;2023-01-05T13:25:50;96748.28;;;8.53;100.00
23229;BME280;11783;50.350;6.576;2023-01-05T13:28:19;96748.25;;;8.59;100.00
23229;BME280;11783;50.350;6.576;2023-01-05T13:47:25;96755.47;;;8.70;100.00
23229;BME280;11783;50.350;6.576;2023-01-05T13:55:29;96749.50;;;9.00;100.00
23229;BME280;11783;50.350;6.576;2023-01-05T13:57:54;96754.78;;;9.00;100.00
23229;BME280;11783;50.350;6.576;2023-01-05T14:03:01;96754.94;;;9.05;100.00
23229;BME280;11783;50.350;6.576;2023-01-05T14:05:53;96753.09;;;9.05;100.00
23229;BME280;11783;50.350;6.576;2023-01-05T14:08:28;96749.94;;;9.15;100.00
23229;BME280;11783;50.350;6.576;2023-01-05T14:11:23;96757.91;;;9.15;100.00
23229;BME280;11783;50.350;6.576;2023-01-05T14:14:26;96750.66;;;9.04;100.00
23229;BME280;11783;50.350;6.576;2023-01-05T14:16:53;96745.72;;;9.07;100.00
23229;BME280;11783;50.350;6.576;2023-01-05T14:19:46;96746.75;;;9.06;100.00
23229;BME280;11783;50.350;6.576;2023-01-05T14:22:21;96745.09;;;9.12;100.00
23229;BME280;11783;50.350;6.576;2023-01-05T14:24:50;96744.63;;;9.15;100.00
23229;BME280;11783;50.350;6.576;2023-01-05T14:27:20;96745.94;;;9.24;100.00
23229;BME280;11783;50.350;6.576;2023-01-05T14:32:28;96736.31;;;9.30;100.00
23229;BME280;11783;50.350;6.576;2023-01-05T14:35:07;96750.97;;;9.32;100.00
23229;BME280;11783;50.350;6.576;2023-01-05T14:38:01;96753.41;;;9.34;100.00
23229;BME280;11783;50.350;6.576;2023-01-05T14:40:34;96754.13;;;9.23;100.00
23229;BME280;11783;50.350;6.576;2023-01-05T14:43:03;96755.16;;;9.22;100.00
23229;BME280;11783;50.350;6.576;2023-01-05T14:45:32;96758.63;;;9.22;100.00
23229;BME280;11783;50.350;6.576;2023-01-05T14:48:02;96748.97;;;9.28;100.00